This is the latest recevied weather packets stored in our database for station/object IK0OZB-10. If no packets are shown the sender has not sent any weather packets the latest 10 day(s).
| Time | Temp. | Humidity | Pressure | Rain* | Wind** | Luminosity | Snow |
|---|---|---|---|---|---|---|---|
| 1777729513 | 23.89° C | 34% | 1022.1 hPa | - | - | - | - |
| 1777728613 | 23.33° C | 38% | 1022.4 hPa | - | - | - | - |
| 1777727713 | 22.78° C | 37% | 1022.5 hPa | - | - | - | - |
| 1777726813 | 22.22° C | 38% | 1022.7 hPa | - | - | - | - |
| 1777725913 | 21.67° C | 39% | 1022.9 hPa | - | - | - | - |
| 1777725012 | 21.11° C | 39% | 1023 hPa | - | - | - | - |
| 1777724112 | 21.11° C | 42% | 1023.1 hPa | - | - | - | - |
| 1777721412 | 19.44° C | 42% | 1023.4 hPa | - | - | - | - |
| 1777720512 | 19.44° C | 41% | 1023.5 hPa | - | - | - | - |
| 1777719612 | 19.44° C | 40% | 1023.5 hPa | - | - | - | - |
| 1777718712 | 18.89° C | 39% | 1023.6 hPa | - | - | - | - |
| 1777717811 | 18.89° C | 43% | 1023.7 hPa | - | - | - | - |
| 1777716911 | 18.33° C | 45% | 1023.8 hPa | - | - | - | - |
| 1777716011 | 18.33° C | 42% | 1023.8 hPa | - | - | - | - |
| 1777714211 | 18.33° C | 44% | 1023.9 hPa | - | - | - | - |
| 1777713311 | 17.78° C | 45% | 1024.1 hPa | - | - | - | - |
| 1777712411 | 17.22° C | 46% | 1024.1 hPa | - | - | - | - |
| 1777711510 | 17.22° C | 43% | 1024 hPa | - | - | - | - |
| 1777710610 | 17.22° C | 43% | 1024 hPa | - | - | - | - |
| 1777709710 | 17.22° C | 44% | 1024.1 hPa | - | - | - | - |
| 1777708810 | 17.22° C | 46% | 1024.2 hPa | - | - | - | - |
| 1777707910 | 17.22° C | 45% | 1024.1 hPa | - | - | - | - |
| 1777707010 | 16.67° C | 48% | 1024.1 hPa | - | - | - | - |
| 1777706110 | 16.11° C | 53% | 1024.1 hPa | - | - | - | - |
| 1777705209 | 15.56° C | 49% | 1024 hPa | - | - | - | - |
* Rain since midnight (hover to see other rain measurements)
** Current wind speed in m/s (hover to see current wind gust speed)